sensor_id;sensor_type;location;lat;lon;timestamp;temperature;humidity
11140;DHT22;5624;49.388;11.350;2022-08-21T00:01:26;15.70;99.90
11140;DHT22;5624;49.388;11.350;2022-08-21T00:03:52;15.70;99.90
11140;DHT22;5624;49.388;11.350;2022-08-21T00:06:18;15.70;99.90
11140;DHT22;5624;49.388;11.350;2022-08-21T00:08:44;15.60;99.90
11140;DHT22;5624;49.388;11.350;2022-08-21T00:11:10;15.50;99.90
11140;DHT22;5624;49.388;11.350;2022-08-21T00:13:36;15.60;99.90
11140;DHT22;5624;49.388;11.350;2022-08-21T00:16:03;15.50;99.90
11140;DHT22;5624;49.388;11.350;2022-08-21T00:18:29;15.50;99.90
11140;DHT22;5624;49.388;11.350;2022-08-21T00:20:55;15.50;99.90
11140;DHT22;5624;49.388;11.350;2022-08-21T00:23:21;15.50;99.90
11140;DHT22;5624;49.388;11.350;2022-08-21T00:25:47;15.40;99.90
11140;DHT22;5624;49.388;11.350;2022-08-21T00:28:14;15.40;99.90
11140;DHT22;5624;49.388;11.350;2022-08-21T00:30:41;15.40;99.90
11140;DHT22;5624;49.388;11.350;2022-08-21T00:33:10;15.30;99.90
11140;DHT22;5624;49.388;11.350;2022-08-21T00:35:39;15.30;99.90
11140;DHT22;5624;49.388;11.350;2022-08-21T00:38:06;15.30;99.90
11140;DHT22;5624;49.388;11.350;2022-08-21T00:40:49;15.40;99.90
11140;DHT22;5624;49.388;11.350;2022-08-21T00:43:18;15.40;99.90
11140;DHT22;5624;49.388;11.350;2022-08-21T00:45:45;15.40;99.90
11140;DHT22;5624;49.388;11.350;2022-08-21T00:48:11;15.40;99.90
11140;DHT22;5624;49.388;11.350;2022-08-21T00:50:42;15.40;99.90
11140;DHT22;5624;49.388;11.350;2022-08-21T00:53:10;15.30;99.90
11140;DHT22;5624;49.388;11.350;2022-08-21T00:55:37;15.30;99.90
11140;DHT22;5624;49.388;11.350;2022-08-21T00:58:05;15.20;99.90
11140;DHT22;5624;49.388;11.350;2022-08-21T01:00:35;15.20;99.90
11140;DHT22;5624;49.388;11.350;2022-08-21T01:03:06;15.20;99.90
11140;DHT22;5624;49.388;11.350;2022-08-21T01:05:32;15.20;99.90
11140;DHT22;5624;49.388;11.350;2022-08-21T01:07:58;15.20;99.90
11140;DHT22;5624;49.388;11.350;2022-08-21T01:10:24;15.30;99.90
11140;DHT22;5624;49.388;11.350;2022-08-21T01:12:52;15.50;99.90
11140;DHT22;5624;49.388;11.350;2022-08-21T01:15:19;15.50;99.90
11140;DHT22;5624;49.388;11.350;2022-08-21T01:17:46;15.60;99.90
11140;DHT22;5624;49.388;11.350;2022-08-21T01:20:12;15.50;99.90
11140;DHT22;5624;49.388;11.350;2022-08-21T01:22:38;15.40;99.90
11140;DHT22;5624;49.388;11.350;2022-08-21T01:25:05;15.30;99.90
11140;DHT22;5624;49.388;11.350;2022-08-21T01:27:31;15.30;99.90
11140;DHT22;5624;49.388;11.350;2022-08-21T01:30:11;15.30;99.90
11140;DHT22;5624;49.388;11.350;2022-08-21T01:32:37;15.30;99.90
11140;DHT22;5624;49.388;11.350;2022-08-21T01:35:04;15.10;99.90
11140;DHT22;5624;49.388;11.350;2022-08-21T01:37:30;15.10;99.90
11140;DHT22;5624;49.388;11.350;2022-08-21T01:39:56;15.00;99.90
11140;DHT22;5624;49.388;11.350;2022-08-21T01:42:22;14.90;99.90
11140;DHT22;5624;49.388;11.350;2022-08-21T01:44:48;14.90;99.90
11140;DHT22;5624;49.388;11.350;2022-08-21T01:47:15;14.90;99.90
11140;DHT22;5624;49.388;11.350;2022-08-21T01:49:42;14.90;99.90
11140;DHT22;5624;49.388;11.350;2022-08-21T01:52:08;14.90;99.90
11140;DHT22;5624;49.388;11.350;2022-08-21T01:54:34;14.90;99.90
11140;DHT22;5624;49.388;11.350;2022-08-21T01:57:00;14.90;99.90
11140;DHT22;5624;49.388;11.350;2022-08-21T01:59:26;14.80;99.90
11140;DHT22;5624;49.388;11.350;2022-08-21T02:01:53;14.80;99.90
11140;DHT22;5624;49.388;11.350;2022-08-21T02:04:21;14.80;99.90
11140;DHT22;5624;49.388;11.350;2022-08-21T02:06:47;14.80;99.90
11140;DHT22;5624;49.388;11.350;2022-08-21T02:09:14;14.80;99.90
11140;DHT22;5624;49.388;11.350;2022-08-21T02:11:40;14.70;99.90
11140;DHT22;5624;49.388;11.350;2022-08-21T02:14:08;14.60;99.90
11140;DHT22;5624;49.388;11.350;2022-08-21T02:16:35;14.50;99.90
11140;DHT22;5624;49.388;11.350;2022-08-21T02:19:01;14.50;99.90
11140;DHT22;5624;49.388;11.350;2022-08-21T02:21:27;14.60;99.90
11140;DHT22;5624;49.388;11.350;2022-08-21T02:23:52;14.50;99.90
11140;DHT22;5624;49.388;11.350;2022-08-21T02:26:18;14.50;99.90
11140;DHT22;5624;49.388;11.350;2022-08-21T02:28:44;14.50;99.90
11140;DHT22;5624;49.388;11.350;2022-08-21T02:31:10;14.50;99.90
11140;DHT22;5624;49.388;11.350;2022-08-21T02:33:35;14.50;99.90
11140;DHT22;5624;49.388;11.350;2022-08-21T02:36:02;14.50;99.90
11140;DHT22;5624;49.388;11.350;2022-08-21T02:38:30;14.50;99.90
11140;DHT22;5624;49.388;11.350;2022-08-21T02:40:58;14.70;99.90
11140;DHT22;5624;49.388;11.350;2022-08-21T02:43:26;14.80;99.90
11140;DHT22;5624;49.388;11.350;2022-08-21T02:45:53;14.70;99.90
11140;DHT22;5624;49.388;11.350;2022-08-21T02:48:23;14.70;99.90
11140;DHT22;5624;49.388;11.350;2022-08-21T02:50:57;14.70;99.90
11140;DHT22;5624;49.388;11.350;2022-08-21T02:53:24;14.90;99.90
11140;DHT22;5624;49.388;11.350;2022-08-21T02:55:51;14.90;99.90
11140;DHT22;5624;49.388;11.350;2022-08-21T02:58:22;14.90;99.90
11140;DHT22;5624;49.388;11.350;2022-08-21T03:00:49;14.90;99.90
11140;DHT22;5624;49.388;11.350;2022-08-21T03:03:15;15.00;99.90
11140;DHT22;5624;49.388;11.350;2022-08-21T03:05:42;15.00;99.90
11140;DHT22;5624;49.388;11.350;2022-08-21T03:08:09;15.00;99.90
11140;DHT22;5624;49.388;11.350;2022-08-21T03:10:37;15.00;99.90
11140;DHT22;5624;49.388;11.350;2022-08-21T03:13:03;15.00;99.90
11140;DHT22;5624;49.388;11.350;2022-08-21T03:15:29;15.10;99.90
11140;DHT22;5624;49.388;11.350;2022-08-21T03:17:55;15.10;99.90
11140;DHT22;5624;49.388;11.350;2022-08-21T03:20:23;15.10;99.90
11140;DHT22;5624;49.388;11.350;2022-08-21T03:22:50;15.20;99.90
11140;DHT22;5624;49.388;11.350;2022-08-21T03:25:16;15.20;99.90
11140;DHT22;5624;49.388;11.350;2022-08-21T03:27:43;15.20;99.90
11140;DHT22;5624;49.388;11.350;2022-08-21T03:30:10;15.30;99.90
11140;DHT22;5624;49.388;11.350;2022-08-21T03:32:36;15.30;99.90
11140;DHT22;5624;49.388;11.350;2022-08-21T03:35:03;15.40;99.90
11140;DHT22;5624;49.388;11.350;2022-08-21T03:37:29;15.40;99.90
11140;DHT22;5624;49.388;11.350;2022-08-21T03:39:55;15.40;99.90
11140;DHT22;5624;49.388;11.350;2022-08-21T03:42:21;15.40;99.90
11140;DHT22;5624;49.388;11.350;2022-08-21T03:44:47;15.30;99.90
11140;DHT22;5624;49.388;11.350;2022-08-21T03:47:12;15.30;99.90
11140;DHT22;5624;49.388;11.350;2022-08-21T03:49:38;15.40;99.90
11140;DHT22;5624;49.388;11.350;2022-08-21T03:52:05;15.40;99.90
11140;DHT22;5624;49.388;11.350;2022-08-21T03:54:31;15.40;99.90
11140;DHT22;5624;49.388;11.350;2022-08-21T03:56:56;15.50;99.90
11140;DHT22;5624;49.388;11.350;2022-08-21T03:59:22;15.50;99.90
11140;DHT22;5624;49.388;11.350;2022-08-21T04:02:07;15.50;99.90
11140;DHT22;5624;49.388;11.350;2022-08-21T04:04:34;15.50;99.90
11140;DHT22;5624;49.388;11.350;2022-08-21T04:07:00;15.50;99.90
11140;DHT22;5624;49.388;11.350;2022-08-21T04:09:26;15.50;99.90
11140;DHT22;5624;49.388;11.350;2022-08-21T04:11:53;15.50;99.90
11140;DHT22;5624;49.388;11.350;2022-08-21T04:14:19;15.50;99.90
11140;DHT22;5624;49.388;11.350;2022-08-21T04:16:45;15.50;99.90
11140;DHT22;5624;49.388;11.350;2022-08-21T04:19:12;15.50;99.90
11140;DHT22;5624;49.388;11.350;2022-08-21T04:21:38;15.60;99.90
11140;DHT22;5624;49.388;11.350;2022-08-21T04:24:06;15.60;99.90
11140;DHT22;5624;49.388;11.350;2022-08-21T04:26:33;15.60;99.90
11140;DHT22;5624;49.388;11.350;2022-08-21T04:29:00;15.60;99.90
11140;DHT22;5624;49.388;11.350;2022-08-21T04:31:26;15.70;99.90
11140;DHT22;5624;49.388;11.350;2022-08-21T04:33:53;15.70;99.90
11140;DHT22;5624;49.388;11.350;2022-08-21T04:36:19;15.70;99.90
11140;DHT22;5624;49.388;11.350;2022-08-21T04:38:45;15.70;99.90
11140;DHT22;5624;49.388;11.350;2022-08-21T04:41:12;15.70;99.90
11140;DHT22;5624;49.388;11.350;2022-08-21T04:43:38;15.80;99.90
11140;DHT22;5624;49.388;11.350;2022-08-21T04:46:04;15.80;99.90
11140;DHT22;5624;49.388;11.350;2022-08-21T04:48:32;15.80;99.90
11140;DHT22;5624;49.388;11.350;2022-08-21T04:56:09;15.90;99.90
11140;DHT22;5624;49.388;11.350;2022-08-21T04:58:37;15.90;99.90
11140;DHT22;5624;49.388;11.350;2022-08-21T05:01:05;15.80;99.90
11140;DHT22;5624;49.388;11.350;2022-08-21T05:03:33;15.80;99.90
11140;DHT22;5624;49.388;11.350;2022-08-21T05:06:00;15.70;99.90
11140;DHT22;5624;49.388;11.350;2022-08-21T05:08:27;15.70;99.90
11140;DHT22;5624;49.388;11.350;2022-08-21T05:10:54;15.80;99.90
11140;DHT22;5624;49.388;11.350;2022-08-21T05:13:20;15.80;99.90
11140;DHT22;5624;49.388;11.350;2022-08-21T05:15:46;15.70;99.90
11140;DHT22;5624;49.388;11.350;2022-08-21T05:18:12;15.80;99.90
11140;DHT22;5624;49.388;11.350;2022-08-21T05:20:38;15.90;99.90
11140;DHT22;5624;49.388;11.350;2022-08-21T05:23:12;15.90;99.90
11140;DHT22;5624;49.388;11.350;2022-08-21T05:25:39;16.00;99.90
11140;DHT22;5624;49.388;11.350;2022-08-21T05:28:05;16.10;99.90
11140;DHT22;5624;49.388;11.350;2022-08-21T05:30:32;16.10;99.90
11140;DHT22;5624;49.388;11.350;2022-08-21T05:33:00;16.10;99.90
11140;DHT22;5624;49.388;11.350;2022-08-21T05:35:27;16.20;99.90
11140;DHT22;5624;49.388;11.350;2022-08-21T05:37:54;16.30;99.90
11140;DHT22;5624;49.388;11.350;2022-08-21T05:40:20;16.30;99.90
11140;DHT22;5624;49.388;11.350;2022-08-21T05:42:46;16.40;99.90
11140;DHT22;5624;49.388;11.350;2022-08-21T05:45:12;16.30;99.90
11140;DHT22;5624;49.388;11.350;2022-08-21T05:47:38;16.40;99.90
11140;DHT22;5624;49.388;11.350;2022-08-21T05:50:05;16.40;99.90
11140;DHT22;5624;49.388;11.350;2022-08-21T05:52:31;16.40;99.90
11140;DHT22;5624;49.388;11.350;2022-08-21T05:54:57;16.40;99.90
11140;DHT22;5624;49.388;11.350;2022-08-21T05:57:22;16.50;99.90
11140;DHT22;5624;49.388;11.350;2022-08-21T05:59:49;16.60;99.90
11140;DHT22;5624;49.388;11.350;2022-08-21T06:02:17;16.70;99.90
11140;DHT22;5624;49.388;11.350;2022-08-21T06:04:43;16.80;99.90
11140;DHT22;5624;49.388;11.350;2022-08-21T06:07:09;16.90;99.90
11140;DHT22;5624;49.388;11.350;2022-08-21T06:09:35;17.00;99.90
11140;DHT22;5624;49.388;11.350;2022-08-21T06:12:09;17.10;99.90
11140;DHT22;5624;49.388;11.350;2022-08-21T06:14:36;17.10;99.90
11140;DHT22;5624;49.388;11.350;2022-08-21T06:17:08;17.20;99.00
11140;DHT22;5624;49.388;11.350;2022-08-21T06:19:35;17.20;98.30
11140;DHT22;5624;49.388;11.350;2022-08-21T06:22:01;17.20;97.60
11140;DHT22;5624;49.388;11.350;2022-08-21T06:24:27;17.30;97.20
11140;DHT22;5624;49.388;11.350;2022-08-21T06:26:54;17.30;97.00
11140;DHT22;5624;49.388;11.350;2022-08-21T06:29:20;17.40;97.50
11140;DHT22;5624;49.388;11.350;2022-08-21T06:31:48;17.50;96.80
11140;DHT22;5624;49.388;11.350;2022-08-21T06:34:14;17.50;96.20
11140;DHT22;5624;49.388;11.350;2022-08-21T06:36:40;17.60;95.70
11140;DHT22;5624;49.388;11.350;2022-08-21T06:39:06;17.70;94.80
11140;DHT22;5624;49.388;11.350;2022-08-21T06:41:33;17.80;94.70
11140;DHT22;5624;49.388;11.350;2022-08-21T06:43:59;17.90;93.60
11140;DHT22;5624;49.388;11.350;2022-08-21T06:46:26;17.80;89.70
11140;DHT22;5624;49.388;11.350;2022-08-21T06:48:52;17.90;88.50
11140;DHT22;5624;49.388;11.350;2022-08-21T06:51:18;17.90;90.50
11140;DHT22;5624;49.388;11.350;2022-08-21T06:53:44;18.10;90.80
11140;DHT22;5624;49.388;11.350;2022-08-21T06:56:10;18.20;91.50
11140;DHT22;5624;49.388;11.350;2022-08-21T06:58:37;18.30;91.20
11140;DHT22;5624;49.388;11.350;2022-08-21T07:01:03;18.40;90.50
11140;DHT22;5624;49.388;11.350;2022-08-21T07:03:33;18.50;89.90
11140;DHT22;5624;49.388;11.350;2022-08-21T07:05:59;18.60;88.60
11140;DHT22;5624;49.388;11.350;2022-08-21T07:08:26;18.60;88.90
11140;DHT22;5624;49.388;11.350;2022-08-21T07:10:53;18.60;88.90
11140;DHT22;5624;49.388;11.350;2022-08-21T07:13:20;18.60;88.50
11140;DHT22;5624;49.388;11.350;2022-08-21T07:15:46;18.70;87.80
11140;DHT22;5624;49.388;11.350;2022-08-21T07:18:13;18.80;87.40
11140;DHT22;5624;49.388;11.350;2022-08-21T07:20:40;18.90;86.30
11140;DHT22;5624;49.388;11.350;2022-08-21T07:23:10;19.00;85.30
11140;DHT22;5624;49.388;11.350;2022-08-21T07:25:38;19.10;85.90
11140;DHT22;5624;49.388;11.350;2022-08-21T07:28:03;19.20;85.90
11140;DHT22;5624;49.388;11.350;2022-08-21T07:30:29;19.30;85.80
11140;DHT22;5624;49.388;11.350;2022-08-21T07:32:55;19.40;85.00
11140;DHT22;5624;49.388;11.350;2022-08-21T07:35:22;19.40;83.90
11140;DHT22;5624;49.388;11.350;2022-08-21T07:37:48;19.40;83.80
11140;DHT22;5624;49.388;11.350;2022-08-21T07:40:15;19.50;83.20
11140;DHT22;5624;49.388;11.350;2022-08-21T07:42:44;19.40;82.70
11140;DHT22;5624;49.388;11.350;2022-08-21T07:45:11;19.40;82.90
11140;DHT22;5624;49.388;11.350;2022-08-21T07:47:36;19.50;83.20
11140;DHT22;5624;49.388;11.350;2022-08-21T07:50:04;19.50;83.20
11140;DHT22;5624;49.388;11.350;2022-08-21T07:52:31;19.50;82.90
11140;DHT22;5624;49.388;11.350;2022-08-21T07:54:58;19.80;82.30
11140;DHT22;5624;49.388;11.350;2022-08-21T07:57:24;19.90;81.40
11140;DHT22;5624;49.388;11.350;2022-08-21T07:59:50;20.10;78.70
11140;DHT22;5624;49.388;11.350;2022-08-21T08:02:28;20.20;79.60
11140;DHT22;5624;49.388;11.350;2022-08-21T08:04:54;20.20;78.20
11140;DHT22;5624;49.388;11.350;2022-08-21T08:07:20;20.40;79.60
11140;DHT22;5624;49.388;11.350;2022-08-21T08:09:46;20.40;77.40
11140;DHT22;5624;49.388;11.350;2022-08-21T08:12:13;20.40;78.50
11140;DHT22;5624;49.388;11.350;2022-08-21T08:14:39;20.70;78.70
11140;DHT22;5624;49.388;11.350;2022-08-21T08:17:04;21.00;77.40
11140;DHT22;5624;49.388;11.350;2022-08-21T08:19:30;21.10;76.00
11140;DHT22;5624;49.388;11.350;2022-08-21T08:21:57;21.30;77.10
11140;DHT22;5624;49.388;11.350;2022-08-21T08:24:22;21.30;75.00
11140;DHT22;5624;49.388;11.350;2022-08-21T08:26:48;21.50;75.20
11140;DHT22;5624;49.388;11.350;2022-08-21T08:29:14;21.70;74.10
11140;DHT22;5624;49.388;11.350;2022-08-21T08:31:40;22.10;72.60
11140;DHT22;5624;49.388;11.350;2022-08-21T08:34:06;22.30;70.80
11140;DHT22;5624;49.388;11.350;2022-08-21T08:36:34;22.50;70.00
11140;DHT22;5624;49.388;11.350;2022-08-21T08:39:03;22.50;70.00
11140;DHT22;5624;49.388;11.350;2022-08-21T08:41:29;22.60;70.50
11140;DHT22;5624;49.388;11.350;2022-08-21T08:44:04;22.40;68.10
11140;DHT22;5624;49.388;11.350;2022-08-21T08:46:41;22.50;68.40
11140;DHT22;5624;49.388;11.350;2022-08-21T08:49:37;22.50;69.50
11140;DHT22;5624;49.388;11.350;2022-08-21T08:52:28;22.30;69.50
11140;DHT22;5624;49.388;11.350;2022-08-21T08:57:33;22.30;70.40
11140;DHT22;5624;49.388;11.350;2022-08-21T09:00:04;22.40;68.80
11140;DHT22;5624;49.388;11.350;2022-08-21T09:02:30;22.30;70.20
11140;DHT22;5624;49.388;11.350;2022-08-21T09:04:59;22.40;69.60
11140;DHT22;5624;49.388;11.350;2022-08-21T09:10:19;22.70;68.90
11140;DHT22;5624;49.388;11.350;2022-08-21T09:13:04;23.00;69.10
11140;DHT22;5624;49.388;11.350;2022-08-21T09:16:03;23.20;67.60
11140;DHT22;5624;49.388;11.350;2022-08-21T09:19:15;23.40;66.20
11140;DHT22;5624;49.388;11.350;2022-08-21T09:24:00;23.00;66.80
11140;DHT22;5624;49.388;11.350;2022-08-21T09:26:54;23.10;66.50
11140;DHT22;5624;49.388;11.350;2022-08-21T09:29:17;23.10;68.20
11140;DHT22;5624;49.388;11.350;2022-08-21T09:31:45;23.40;67.00
11140;DHT22;5624;49.388;11.350;2022-08-21T09:34:12;23.50;66.90
11140;DHT22;5624;49.388;11.350;2022-08-21T09:36:42;23.60;67.20
11140;DHT22;5624;49.388;11.350;2022-08-21T09:39:11;23.70;65.30
11140;DHT22;5624;49.388;11.350;2022-08-21T09:41:39;23.70;64.80
11140;DHT22;5624;49.388;11.350;2022-08-21T09:44:07;23.60;65.20
11140;DHT22;5624;49.388;11.350;2022-08-21T09:46:34;23.40;66.10
11140;DHT22;5624;49.388;11.350;2022-08-21T09:49:03;23.60;66.10
11140;DHT22;5624;49.388;11.350;2022-08-21T09:51:30;24.70;65.10
11140;DHT22;5624;49.388;11.350;2022-08-21T09:59:27;26.10;58.90
11140;DHT22;5624;49.388;11.350;2022-08-21T10:01:56;25.90;57.90
11140;DHT22;5624;49.388;11.350;2022-08-21T10:04:28;25.80;56.70
11140;DHT22;5624;49.388;11.350;2022-08-21T10:06:53;25.50;57.60
11140;DHT22;5624;49.388;11.350;2022-08-21T10:09:20;25.30;58.10
11140;DHT22;5624;49.388;11.350;2022-08-21T10:11:59;25.40;59.40
11140;DHT22;5624;49.388;11.350;2022-08-21T10:14:47;26.00;59.20
11140;DHT22;5624;49.388;11.350;2022-08-21T10:20:13;25.60;57.90
11140;DHT22;5624;49.388;11.350;2022-08-21T10:25:20;25.20;60.30
11140;DHT22;5624;49.388;11.350;2022-08-21T10:30:36;26.10;57.10
11140;DHT22;5624;49.388;11.350;2022-08-21T10:50:30;28.80;49.40
11140;DHT22;5624;49.388;11.350;2022-08-21T10:58:29;29.20;49.00
11140;DHT22;5624;49.388;11.350;2022-08-21T11:01:10;28.40;47.50
11140;DHT22;5624;49.388;11.350;2022-08-21T11:03:42;27.70;49.00
11140;DHT22;5624;49.388;11.350;2022-08-21T11:06:20;28.00;49.80
11140;DHT22;5624;49.388;11.350;2022-08-21T11:09:22;28.30;49.50
11140;DHT22;5624;49.388;11.350;2022-08-21T11:12:06;28.50;49.40
11140;DHT22;5624;49.388;11.350;2022-08-21T11:14:54;28.70;48.70
11140;DHT22;5624;49.388;11.350;2022-08-21T11:17:37;29.10;45.70
11140;DHT22;5624;49.388;11.350;2022-08-21T11:20:21;29.30;45.10
11140;DHT22;5624;49.388;11.350;2022-08-21T11:23:07;28.80;45.50
11140;DHT22;5624;49.388;11.350;2022-08-21T11:25:40;27.30;47.00
11140;DHT22;5624;49.388;11.350;2022-08-21T11:28:13;26.60;50.10
11140;DHT22;5624;49.388;11.350;2022-08-21T11:46:59;25.60;54.40
11140;DHT22;5624;49.388;11.350;2022-08-21T11:52:28;26.60;50.50
11140;DHT22;5624;49.388;11.350;2022-08-21T11:55:08;27.20;48.40
11140;DHT22;5624;49.388;11.350;2022-08-21T11:58:00;27.80;49.10
11140;DHT22;5624;49.388;11.350;2022-08-21T12:02:53;28.30;44.10
11140;DHT22;5624;49.388;11.350;2022-08-21T12:05:34;27.50;47.80
11140;DHT22;5624;49.388;11.350;2022-08-21T12:08:30;26.90;47.60
11140;DHT22;5624;49.388;11.350;2022-08-21T12:16:32;27.00;48.00
11140;DHT22;5624;49.388;11.350;2022-08-21T12:19:08;27.30;48.20
11140;DHT22;5624;49.388;11.350;2022-08-21T12:24:18;27.60;45.40
11140;DHT22;5624;49.388;11.350;2022-08-21T12:26:52;27.50;44.00
11140;DHT22;5624;49.388;11.350;2022-08-21T12:31:55;27.40;44.70
11140;DHT22;5624;49.388;11.350;2022-08-21T12:34:25;27.20;44.90
11140;DHT22;5624;49.388;11.350;2022-08-21T12:36:59;26.30;44.90
11140;DHT22;5624;49.388;11.350;2022-08-21T12:39:29;25.60;47.60
11140;DHT22;5624;49.388;11.350;2022-08-21T12:44:53;24.90;49.30
11140;DHT22;5624;49.388;11.350;2022-08-21T12:47:43;24.60;50.80
11140;DHT22;5624;49.388;11.350;2022-08-21T12:50:14;24.60;52.40
11140;DHT22;5624;49.388;11.350;2022-08-21T12:53:09;25.20;51.70
11140;DHT22;5624;49.388;11.350;2022-08-21T12:55:41;25.50;46.90
11140;DHT22;5624;49.388;11.350;2022-08-21T12:58:18;25.60;47.50
11140;DHT22;5624;49.388;11.350;2022-08-21T13:00:53;26.00;47.80
11140;DHT22;5624;49.388;11.350;2022-08-21T13:03:19;26.30;46.50
11140;DHT22;5624;49.388;11.350;2022-08-21T13:05:45;26.40;45.80
11140;DHT22;5624;49.388;11.350;2022-08-21T13:08:12;26.40;44.10
11140;DHT22;5624;49.388;11.350;2022-08-21T13:10:40;26.60;45.60
11140;DHT22;5624;49.388;11.350;2022-08-21T13:13:19;26.70;46.00
11140;DHT22;5624;49.388;11.350;2022-08-21T13:15:46;26.30;45.50
11140;DHT22;5624;49.388;11.350;2022-08-21T13:18:24;26.40;45.30
11140;DHT22;5624;49.388;11.350;2022-08-21T13:20:50;26.60;44.60
11140;DHT22;5624;49.388;11.350;2022-08-21T13:23:29;26.30;44.90
11140;DHT22;5624;49.388;11.350;2022-08-21T13:25:56;26.30;44.10
11140;DHT22;5624;49.388;11.350;2022-08-21T13:28:23;26.10;44.60
11140;DHT22;5624;49.388;11.350;2022-08-21T13:30:58;25.90;45.00
11140;DHT22;5624;49.388;11.350;2022-08-21T13:33:29;25.60;44.90
11140;DHT22;5624;49.388;11.350;2022-08-21T13:38:28;25.80;45.90
11140;DHT22;5624;49.388;11.350;2022-08-21T13:43:45;25.90;46.40
11140;DHT22;5624;49.388;11.350;2022-08-21T13:46:13;25.90;46.30
11140;DHT22;5624;49.388;11.350;2022-08-21T13:48:41;25.50;45.50
11140;DHT22;5624;49.388;11.350;2022-08-21T13:51:08;25.00;46.60
11140;DHT22;5624;49.388;11.350;2022-08-21T13:56:07;24.60;48.60
11140;DHT22;5624;49.388;11.350;2022-08-21T13:58:46;24.50;47.60
11140;DHT22;5624;49.388;11.350;2022-08-21T14:01:30;24.50;47.90
11140;DHT22;5624;49.388;11.350;2022-08-21T14:04:04;24.60;47.90
11140;DHT22;5624;49.388;11.350;2022-08-21T14:06:34;24.30;48.20
11140;DHT22;5624;49.388;11.350;2022-08-21T14:09:12;24.20;47.50
11140;DHT22;5624;49.388;11.350;2022-08-21T14:11:38;24.40;47.30
11140;DHT22;5624;49.388;11.350;2022-08-21T14:16:57;24.60;47.40
11140;DHT22;5624;49.388;11.350;2022-08-21T14:19:35;24.60;46.70
11140;DHT22;5624;49.388;11.350;2022-08-21T14:22:42;24.70;47.00
11140;DHT22;5624;49.388;11.350;2022-08-21T14:25:13;24.70;46.20
11140;DHT22;5624;49.388;11.350;2022-08-21T14:27:43;24.70;47.10
11140;DHT22;5624;49.388;11.350;2022-08-21T14:30:17;24.50;46.90
11140;DHT22;5624;49.388;11.350;2022-08-21T14:32:43;24.50;47.00
11140;DHT22;5624;49.388;11.350;2022-08-21T14:35:11;24.50;47.20
11140;DHT22;5624;49.388;11.350;2022-08-21T14:37:37;24.50;47.10
11140;DHT22;5624;49.388;11.350;2022-08-21T14:40:04;24.50;46.80
11140;DHT22;5624;49.388;11.350;2022-08-21T14:42:30;24.60;47.10
11140;DHT22;5624;49.388;11.350;2022-08-21T14:45:01;24.50;46.30
11140;DHT22;5624;49.388;11.350;2022-08-21T14:47:27;24.40;46.70
11140;DHT22;5624;49.388;11.350;2022-08-21T14:49:55;24.40;46.80
11140;DHT22;5624;49.388;11.350;2022-08-21T14:52:21;24.50;46.70
11140;DHT22;5624;49.388;11.350;2022-08-21T14:54:48;24.50;47.40
11140;DHT22;5624;49.388;11.350;2022-08-21T14:57:13;24.60;46.10
11140;DHT22;5624;49.388;11.350;2022-08-21T14:59:39;24.60;46.00
11140;DHT22;5624;49.388;11.350;2022-08-21T15:02:07;24.50;46.30
11140;DHT22;5624;49.388;11.350;2022-08-21T15:04:34;24.50;45.50
11140;DHT22;5624;49.388;11.350;2022-08-21T15:07:00;24.40;44.90
11140;DHT22;5624;49.388;11.350;2022-08-21T15:09:26;24.40;45.50
11140;DHT22;5624;49.388;11.350;2022-08-21T15:11:56;24.30;46.80
11140;DHT22;5624;49.388;11.350;2022-08-21T15:14:25;24.30;47.50
11140;DHT22;5624;49.388;11.350;2022-08-21T15:16:52;24.20;45.80
11140;DHT22;5624;49.388;11.350;2022-08-21T15:19:19;24.20;46.20
11140;DHT22;5624;49.388;11.350;2022-08-21T15:21:44;24.10;46.40
11140;DHT22;5624;49.388;11.350;2022-08-21T15:24:10;24.10;47.10
11140;DHT22;5624;49.388;11.350;2022-08-21T15:26:36;24.00;46.60
11140;DHT22;5624;49.388;11.350;2022-08-21T15:29:04;23.90;46.70
11140;DHT22;5624;49.388;11.350;2022-08-21T15:31:30;23.90;46.90
11140;DHT22;5624;49.388;11.350;2022-08-21T15:33:56;23.90;47.60
11140;DHT22;5624;49.388;11.350;2022-08-21T15:36:23;23.90;45.10
11140;DHT22;5624;49.388;11.350;2022-08-21T15:38:49;23.80;44.90
11140;DHT22;5624;49.388;11.350;2022-08-21T15:41:14;23.80;45.10
11140;DHT22;5624;49.388;11.350;2022-08-21T15:43:47;23.80;44.20
11140;DHT22;5624;49.388;11.350;2022-08-21T15:46:15;23.80;45.40
11140;DHT22;5624;49.388;11.350;2022-08-21T15:48:42;23.80;44.80
11140;DHT22;5624;49.388;11.350;2022-08-21T15:51:10;23.80;45.30
11140;DHT22;5624;49.388;11.350;2022-08-21T15:53:36;23.70;44.20
11140;DHT22;5624;49.388;11.350;2022-08-21T15:56:06;23.70;44.80
11140;DHT22;5624;49.388;11.350;2022-08-21T15:58:37;23.60;45.80
11140;DHT22;5624;49.388;11.350;2022-08-21T16:01:05;23.60;46.40
11140;DHT22;5624;49.388;11.350;2022-08-21T16:03:31;23.60;45.40
11140;DHT22;5624;49.388;11.350;2022-08-21T16:05:58;23.60;44.70
11140;DHT22;5624;49.388;11.350;2022-08-21T16:08:25;23.60;45.20
11140;DHT22;5624;49.388;11.350;2022-08-21T16:10:51;23.60;45.10
11140;DHT22;5624;49.388;11.350;2022-08-21T16:13:29;23.60;44.80
11140;DHT22;5624;49.388;11.350;2022-08-21T16:15:57;23.50;46.60
11140;DHT22;5624;49.388;11.350;2022-08-21T16:18:25;23.40;45.50
11140;DHT22;5624;49.388;11.350;2022-08-21T16:20:52;23.40;45.90
11140;DHT22;5624;49.388;11.350;2022-08-21T16:23:18;23.40;46.10
11140;DHT22;5624;49.388;11.350;2022-08-21T16:25:45;23.30;45.30
11140;DHT22;5624;49.388;11.350;2022-08-21T16:28:14;23.30;46.20
11140;DHT22;5624;49.388;11.350;2022-08-21T16:30:43;23.30;45.50
11140;DHT22;5624;49.388;11.350;2022-08-21T16:33:24;23.20;46.20
11140;DHT22;5624;49.388;11.350;2022-08-21T16:35:51;23.20;44.60
11140;DHT22;5624;49.388;11.350;2022-08-21T16:38:17;23.20;46.10
11140;DHT22;5624;49.388;11.350;2022-08-21T16:40:43;23.10;45.80
11140;DHT22;5624;49.388;11.350;2022-08-21T16:43:09;23.00;45.70
11140;DHT22;5624;49.388;11.350;2022-08-21T16:45:42;23.00;46.20
11140;DHT22;5624;49.388;11.350;2022-08-21T16:48:08;23.00;45.20
11140;DHT22;5624;49.388;11.350;2022-08-21T16:50:35;22.90;45.40
11140;DHT22;5624;49.388;11.350;2022-08-21T16:53:02;22.90;45.40
11140;DHT22;5624;49.388;11.350;2022-08-21T16:55:29;22.80;44.70
11140;DHT22;5624;49.388;11.350;2022-08-21T16:57:55;22.80;45.80
11140;DHT22;5624;49.388;11.350;2022-08-21T17:00:21;22.70;45.60
11140;DHT22;5624;49.388;11.350;2022-08-21T17:02:50;22.70;46.30
11140;DHT22;5624;49.388;11.350;2022-08-21T17:05:18;22.60;46.00
11140;DHT22;5624;49.388;11.350;2022-08-21T17:07:44;22.50;47.00
11140;DHT22;5624;49.388;11.350;2022-08-21T17:10:12;22.40;46.50
11140;DHT22;5624;49.388;11.350;2022-08-21T17:12:41;22.30;47.20
11140;DHT22;5624;49.388;11.350;2022-08-21T17:15:19;22.20;47.50
11140;DHT22;5624;49.388;11.350;2022-08-21T17:17:46;22.30;47.40